Time;durP1;ratioP1;P1;durP2;ratioP2;P2;SDS_P1;SDS_P2;PMS_P1;PMS_P2;Temp;Humidity;BMP_temperature;BMP_pressure;BME280_temperature;BME280_humidity;BME280_pressure;Samples;Min_cycle;Max_cycle;Signal;HPM_P1;HPM_P2
2022/06/13 00:00:56;;;;;;;11.99;7.41;;;;;;;;;;366905;144;856443;-58
2022/06/13 00:01:57;;;;;;;10.31;6.60;;;;;;;;;;367022;144;859611;-57
2022/06/13 00:02:59;;;;;;;13.85;7.66;;;;;;;;;;366584;144;865006;-57
2022/06/13 00:04:01;;;;;;;15.10;9.36;;;;;;;;;;367272;144;858552;-58
2022/06/13 00:05:03;;;;;;;17.13;9.35;;;;;;;;;;368075;144;857436;-58
2022/06/13 00:06:05;;;;;;;15.07;9.73;;;;;;;;;;366810;144;858997;-58
2022/06/13 00:07:06;;;;;;;16.23;9.31;;;;;;;;;;367012;144;857331;-59
2022/06/13 00:08:08;;;;;;;15.99;9.83;;;;;;;;;;366202;144;856322;-58
2022/06/13 00:09:10;;;;;;;17.03;9.62;;;;;;;;;;367174;144;859880;-59
2022/06/13 00:10:13;;;;;;;17.48;9.43;;;;;;;;;;366630;144;857178;-58
2022/06/13 00:11:15;;;;;;;14.57;9.08;;;;;;;;;;367993;144;857409;-57
2022/06/13 00:12:17;;;;;;;14.71;9.01;;;;;;;;;;367448;144;859164;-58
2022/06/13 00:13:19;;;;;;;17.42;9.40;;;;;;;;;;366898;144;858992;-60
2022/06/13 00:14:21;;;;;;;13.89;9.51;;;;;;;20.56;95.10;150782.61;367087;144;864972;-57
2022/06/13 00:15:22;;;;;;;15.00;9.33;;;;;;;;;;369163;144;858184;-58
2022/06/13 00:16:24;;;;;;;11.51;7.91;;;;;;;;;;366377;144;859503;-57
2022/06/13 00:17:26;;;;;;;13.82;8.58;;;;;;;;;;364800;144;864967;-59
2022/06/13 00:18:27;;;;;;;17.00;9.11;;;;;;;;;;364466;145;866672;-59
2022/06/13 00:19:29;;;;;;;15.91;9.46;;;;;;;;;;364596;145;865149;-60
2022/06/13 00:20:30;;;;;;;16.84;8.74;;;;;;;;;;364406;145;857441;-59
2022/06/13 00:21:34;;;;;;;16.56;9.06;;;;;;;;;;364819;145;865035;-59
2022/06/13 00:22:35;;;;;;;16.75;9.61;;;;;;;;;;365097;145;866591;-59
2022/06/13 00:23:37;;;;;;;16.06;9.66;;;;;;;;;;365750;145;856618;-59
2022/06/13 00:24:39;;;;;;;16.75;8.61;;;;;;;;;;364805;145;864864;-60
2022/06/13 00:25:40;;;;;;;13.02;7.06;;;;;;;;;;365232;145;866532;-59
2022/06/13 00:26:42;;;;;;;11.91;7.41;;;;;;;;;;365612;145;860045;-59
2022/06/13 00:27:44;;;;;;;10.92;7.75;;;;;;;;;;365387;145;856567;-58
2022/06/13 00:28:45;;;;;;;13.59;7.57;;;;;;;;;;364947;145;856425;-58
2022/06/13 00:29:49;;;;;;;12.81;7.22;;;;;;;;;;366061;145;863994;-58
2022/06/13 00:30:50;;;;;;;9.44;6.03;;;;;;;;;;364186;145;856605;-59
2022/06/13 00:31:52;;;;;;;7.50;5.30;;;;;;;;;;365538;145;865489;-58
2022/06/13 00:32:54;;;;;;;10.92;5.60;;;;;;;;;;361456;148;865021;-59
2022/06/13 00:33:55;;;;;;;6.96;5.74;;;;;;;;;;360225;148;859211;-58
2022/06/13 00:34:57;;;;;;;7.81;5.51;;;;;;;;;;365221;145;857289;-58
2022/06/13 00:35:59;;;;;;;7.44;5.56;;;;;;;;;;364883;145;859121;-58
2022/06/13 00:37:00;;;;;;;9.47;5.70;;;;;;;;;;367403;145;864801;-58
2022/06/13 00:38:02;;;;;;;8.52;6.37;;;;;;;;;;365434;145;866072;-58
2022/06/13 00:39:04;;;;;;;10.26;6.96;;;;;;;;;;364545;145;857322;-59
2022/06/13 00:40:06;;;;;;;11.74;6.94;;;;;;;;;;365277;145;867188;-58
2022/06/13 00:41:09;;;;;;;12.41;6.51;;;;;;;;;;364695;145;857274;-58
2022/06/13 00:42:11;;;;;;;12.64;6.18;;;;;;;;;;365041;145;857311;-58
2022/06/13 00:43:13;;;;;;;12.78;6.74;;;;;;;;;;364095;145;857341;-59
2022/06/13 00:44:29;;;;;;;10.06;6.11;;;;;;;;;;364973;145;857456;-59
2022/06/13 00:45:35;;;;;;;11.28;7.00;;;;;;;;;;365039;145;857482;-59
2022/06/13 00:46:37;;;;;;;11.66;6.84;;;;;;;;;;364309;145;856672;-58
2022/06/13 00:47:39;;;;;;;13.31;7.51;;;;;;;;;;364856;144;857722;-59
2022/06/13 00:48:40;;;;;;;9.99;7.27;;;;;;;;;;351416;150;858078;-59
2022/06/13 00:49:43;;;;;;;10.85;6.82;;;;;;;;;;348045;151;857295;-59
2022/06/13 00:50:46;;;;;;;9.43;7.53;;;;;;;;;;349059;150;858996;-58
2022/06/13 00:51:49;;;;;;;10.51;7.47;;;;;;;;;;348367;151;857549;-58
2022/06/13 00:52:56;;;;;;;9.44;7.37;;;;;;;;;;347162;150;865616;-59
2022/06/13 00:53:58;;;;;;;11.91;8.11;;;;;;;;;;349363;150;857207;-58
2022/06/13 00:55:00;;;;;;;11.92;7.68;;;;;;;;;;347734;150;856382;-58
2022/06/13 00:56:03;;;;;;;14.48;7.74;;;;;;;;;;349127;150;857642;-59
2022/06/13 00:57:05;;;;;;;12.00;8.31;;;;;;;;;;350174;150;866784;-59
2022/06/13 00:58:07;;;;;;;14.29;8.87;;;;;;;;;;350454;150;857435;-59
2022/06/13 00:59:13;;;;;;;11.71;8.84;;;;;;;;;;349806;150;859046;-59
2022/06/13 01:00:16;;;;;;;14.76;9.12;;;;;;;;;;350870;150;857203;-59
2022/06/13 01:01:20;;;;;;;14.34;9.42;;;;;;;;;;348198;150;857399;-59
2022/06/13 01:02:22;;;;;;;15.20;9.37;;;;;;;;;;345065;153;857313;-58
2022/06/13 01:03:25;;;;;;;14.88;9.65;;;;;;;;;;344127;155;857356;-58
2022/06/13 01:04:26;;;;;;;14.93;9.27;;;;;;;;;;344844;153;857376;-58
2022/06/13 01:05:29;;;;;;;15.00;9.72;;;;;;;;;;345924;153;867116;-57
2022/06/13 01:06:32;;;;;;;17.36;8.49;;;;;;;;;;341968;155;866248;-58
2022/06/13 01:07:34;;;;;;;16.93;9.39;;;;;;;;;;345097;153;857446;-60
2022/06/13 01:08:36;;;;;;;14.46;9.31;;;;;;;;;;346197;153;856739;-60
2022/06/13 01:11:18;;;;;;;19.53;9.33;;;;;;;;;;344037;153;859490;-57
2022/06/13 01:12:20;;;;;;;14.26;9.37;;;;;;;;;;346307;153;858567;-58
2022/06/13 01:13:22;;;;;;;15.58;8.07;;;;;;;;;;345673;153;857492;-59
2022/06/13 01:14:28;;;;;;;10.69;7.54;;;;;;;;;;341981;153;858263;-57
2022/06/13 01:15:47;;;;;;;12.57;7.84;;;;;;;;;;344823;153;857373;-58
2022/06/13 01:18:42;;;;;;;10.90;7.29;;;;;;;;;;354789;149;859929;-58
2022/06/13 01:20:02;;;;;;;12.85;7.78;;;;;;;;;;355785;149;857231;-59
2022/06/13 01:21:04;;;;;;;;;;;;;;;;;;358120;148;856466;-58
2022/06/13 01:22:10;;;;;;;13.37;7.37;;;;;;;;;;354869;148;857441;-58
2022/06/13 01:23:14;;;;;;;10.57;7.25;;;;;;;;;;354943;149;863764;-60
2022/06/13 01:24:34;;;;;;;12.15;8.03;;;;;;;;;;355678;148;858625;-59
2022/06/13 01:25:53;;;;;;;12.53;7.91;;;;;;;;;;355627;148;857708;-58
2022/06/13 01:26:59;;;;;;;10.07;6.80;;;;;;;;;;356770;148;858190;-59
2022/06/13 01:28:09;;;;;;;13.90;8.09;;;;;;;;;;354324;148;858566;-58
2022/06/13 01:29:12;;;;;;;11.82;7.48;;;;;;;;;;354960;148;859505;-58
2022/06/13 01:30:26;;;;;;;11.98;7.69;;;;;;;;;;357185;149;857265;-58
2022/06/13 01:31:36;;;;;;;9.49;7.31;;;;;;;;;;356418;148;858599;-59
2022/06/13 01:32:51;;;;;;;10.72;7.11;;;;;;;;;;354510;148;857938;-57
2022/06/13 01:34:10;;;;;;;14.13;7.62;;;;;;;;;;354297;149;863879;-57
2022/06/13 01:35:30;;;;;;;11.79;7.84;;;;;;;;;;355186;149;857325;-57
2022/06/13 01:36:39;;;;;;;12.62;7.21;;;;;;;;;;355820;149;857507;-59
2022/06/13 01:38:00;;;;;;;10.18;7.06;;;;;;;;;;354975;149;860389;-58
2022/06/13 01:39:07;;;;;;;10.56;7.37;;;;;;;;;;356709;148;859126;-57
2022/06/13 01:40:14;;;;;;;12.18;8.03;;;;;;;;;;356174;148;859028;-58
2022/06/13 01:41:18;;;;;;;11.98;7.16;;;;;;;;;;357880;149;860228;-57
2022/06/13 01:42:21;;;;;;;15.86;7.16;;;;;;;;;;356346;148;859204;-58
2022/06/13 01:43:25;;;;;;;13.61;7.06;;;;;;;;;;355419;149;858378;-57
2022/06/13 01:44:29;;;;;;;12.19;7.16;;;;;;;;;;355598;148;857989;-58
2022/06/13 01:45:41;;;;;;;10.46;7.07;;;;;;;;;;354921;148;857456;-58
2022/06/13 01:46:45;;;;;;;12.04;7.15;;;;;;;;;;356398;148;857713;-59
2022/06/13 01:47:49;;;;;;;11.78;7.87;;;;;;;;;;355783;148;856894;-58
2022/06/13 01:48:52;;;;;;;11.24;7.54;;;;;;;;;;356334;148;863875;-59
2022/06/13 01:49:59;;;;;;;8.63;6.96;;;;;;;;;;347912;153;857243;-57
2022/06/13 01:51:14;;;;;;;10.46;7.20;;;;;;;;;;341762;155;858991;-58
2022/06/13 01:52:21;;;;;;;10.69;7.06;;;;;;;;;;350020;153;857239;-57
2022/06/13 01:53:28;;;;;;;11.44;7.66;;;;;;;;;;348492;152;857296;-59
2022/06/13 01:54:44;;;;;;;11.08;7.68;;;;;;;;;;348024;152;857346;-60
2022/06/13 01:55:47;;;;;;;11.83;7.97;;;;;;;;;;349621;152;857208;-59
2022/06/13 01:57:00;;;;;;;10.65;7.91;;;;;;;;;;349159;151;856819;-58
2022/06/13 01:58:07;;;;;;;11.36;7.81;;;;;;;;;;353919;149;864887;-59
2022/06/13 01:59:17;;;;;;;12.84;7.59;;;;;;;;;;355433;150;858814;-60
2022/06/13 02:00:20;;;;;;;13.50;7.77;;;;;;;;;;355895;148;857324;-60
2022/06/13 02:01:23;;;;;;;13.81;7.88;;;;;;;;;;354964;149;857174;-59
2022/06/13 02:02:27;;;;;;;11.84;8.33;;;;;;;;;;355784;148;865109;-58
2022/06/13 02:03:33;;;;;;;12.64;8.11;;;;;;;;;;354717;149;861322;-57
2022/06/13 02:04:36;;;;;;;12.52;8.17;;;;;;;;;;355234;149;858657;-58
2022/06/13 02:05:40;;;;;;;13.97;8.63;;;;;;;;;;355685;151;856578;-58
2022/06/13 02:06:43;;;;;;;14.56;8.41;;;;;;;;;;356048;148;864901;-59
2022/06/13 02:07:50;;;;;;;13.54;8.60;;;;;;;;;;354842;150;865071;-58
2022/06/13 02:08:53;;;;;;;10.91;7.57;;;;;;;;;;356203;148;856620;-60
2022/06/13 02:10:02;;;;;;;12.06;7.40;;;;;;;;;;356648;148;859252;-60
2022/06/13 02:11:05;;;;;;;14.63;8.61;;;;;;;;;;355571;149;864882;-59
2022/06/13 02:12:07;;;;;;;13.47;7.58;;;;;;;;;;355961;148;859145;-60
2022/06/13 02:13:13;;;;;;;11.07;7.63;;;;;;;;;;356440;148;857290;-59
2022/06/13 02:14:16;;;;;;;10.66;7.51;;;;;;;;;;356433;148;858943;-58
2022/06/13 02:15:19;;;;;;;14.36;7.83;;;;;;;;;;343406;154;857366;-59
2022/06/13 02:16:23;;;;;;;15.68;8.42;;;;;;;;;;348728;151;858998;-58
2022/06/13 02:17:27;;;;;;;12.76;8.49;;;;;;;;;;342336;154;859101;-58
2022/06/13 02:18:31;;;;;;;16.02;8.14;;;;;;;;;;349841;152;864883;-58
2022/06/13 02:19:34;;;;;;;16.67;8.28;;;;;;;;;;347609;153;857381;-60
2022/06/13 02:20:37;;;;;;;11.91;8.24;;;;;;;;;;350050;151;865969;-58
2022/06/13 02:21:46;;;;;;;13.63;8.19;;;;;;;;;;349750;153;865862;-59
2022/06/13 02:22:53;;;;;;;14.22;8.44;;;;;;;;;;349057;153;857332;-57
2022/06/13 02:23:55;;;;;;;14.11;8.67;;;;;;;;;;349674;153;858992;-59
2022/06/13 02:24:58;;;;;;;12.39;8.35;;;;;;;;;;348929;153;858236;-59
2022/06/13 02:26:03;;;;;;;12.53;7.66;;;;;;;;;;350033;151;856683;-59
2022/06/13 02:27:06;;;;;;;16.32;8.62;;;;;;;;;;343547;155;866318;-58
2022/06/13 02:28:12;;;;;;;14.06;9.15;;;;;;;;;;343508;153;859063;-59
2022/06/13 02:29:15;;;;;;;14.91;8.23;;;;;;;;;;347789;153;858698;-58
2022/06/13 02:30:18;;;;;;;14.24;9.21;;;;;;;;;;349006;153;857437;-58
2022/06/13 02:31:22;;;;;;;17.38;9.93;;;;;;;;;;348428;153;857229;-58
2022/06/13 02:32:28;;;;;;;15.42;8.83;;;;;;;;;;350172;153;859507;-57
2022/06/13 02:33:31;;;;;;;16.45;9.66;;;;;;;;;;343546;153;859295;-59
2022/06/13 02:34:34;;;;;;;14.16;9.26;;;;;;;;;;344473;153;858428;-58
2022/06/13 02:35:40;;;;;;;14.96;8.93;;;;;;;;;;349219;153;857375;-58
2022/06/13 02:36:58;;;;;;;11.86;7.66;;;;;;;;;;348462;153;857422;-57
2022/06/13 02:39:15;;;;;;;14.42;8.19;;;;;;;;;;346587;149;857772;-65
2022/06/13 02:40:22;;;;;;;11.13;7.01;;;;;;;;;;347329;152;857229;-66
2022/06/13 02:41:25;;;;;;;14.94;8.73;;;;;;;;;;340159;158;857336;-66
2022/06/13 02:42:31;;;;;;;15.49;8.27;;;;;;;;;;340606;155;857422;-66
2022/06/13 02:43:35;;;;;;;15.71;8.61;;;;;;;;;;347412;153;857367;-67
2022/06/13 02:44:39;;;;;;;16.34;8.77;;;;;;;;;;347234;152;858691;-66
2022/06/13 02:45:43;;;;;;;13.81;8.23;;;;;;;;;;340800;155;857461;-67
2022/06/13 02:46:47;;;;;;;11.64;7.83;;;;;;;;;;343430;155;866714;-66
2022/06/13 02:47:51;;;;;;;13.38;8.22;;;;;;;;;;339629;156;866235;-66
2022/06/13 02:48:57;;;;;;;14.29;8.39;;;;;;;;;;342459;155;865271;-68
2022/06/13 02:50:00;;;;;;;14.51;7.81;;;;;;;;;;348813;152;858361;-67
2022/06/13 02:51:04;;;;;;;15.34;8.89;;;;;;;;;;342542;155;857312;-67
2022/06/13 02:52:13;;;;;;;17.89;9.57;;;;;;;;;;346987;153;858307;-67
2022/06/13 02:53:17;;;;;;;15.88;8.98;;;;;;;;;;346798;152;857231;-67
2022/06/13 02:54:23;;;;;;;14.01;9.86;;;;;;;;;;346331;152;858488;-67
2022/06/13 02:55:25;;;;;;;16.26;9.97;;;;;;;;;;333190;156;866298;-65
2022/06/13 02:56:32;;;;;;;17.90;10.26;;;;;;;;;;345904;152;859099;-67
2022/06/13 02:57:39;;;;;;;15.56;10.14;;;;;;;;;;340310;155;859220;-66
2022/06/13 02:58:48;;;;;;;14.46;9.37;;;;;;;;;;340675;155;857485;-66
2022/06/13 02:59:58;;;;;;;14.42;9.62;;;;;;;;;;339338;155;857298;-68
2022/06/13 03:01:07;;;;;;;16.07;9.90;;;;;;;;;;333404;158;857892;-67
2022/06/13 03:02:09;;;;;;;15.53;10.01;;;;;;;;;;336675;155;859546;-67
2022/06/13 03:03:13;;;;;;;16.51;9.89;;;;;;;;;;340488;155;858832;-66
2022/06/13 03:04:16;;;;;;;19.37;10.81;;;;;;;;;;341642;155;864895;-66
2022/06/13 03:05:22;;;;;;;17.07;10.23;;;;;;;;;;340718;155;858405;-66
2022/06/13 03:06:31;;;;;;;17.73;10.09;;;;;;;;;;341191;153;857821;-66
2022/06/13 03:07:36;;;;;;;15.97;9.68;;;;;;;;;;346899;153;857396;-66
2022/06/13 03:08:40;;;;;;;17.97;10.46;;;;;;;;;;342268;155;857126;-66
2022/06/13 03:09:48;;;;;;;18.70;9.60;;;;;;;;;;341558;155;857351;-66
2022/06/13 03:10:52;;;;;;;17.43;10.03;;;;;;;;;;343408;155;859600;-66
2022/06/13 03:11:56;;;;;;;18.57;9.74;;;;;;;;;;346902;153;857288;-65
2022/06/13 03:13:02;;;;;;;15.71;9.92;;;;;;;;;;347002;153;867202;-66
2022/06/13 03:14:21;;;;;;;19.16;9.83;;;;;;;;;;341470;155;858895;-66
2022/06/13 03:15:37;;;;;;;14.47;9.74;;;;;;;;;;339858;155;857304;-67
2022/06/13 03:16:40;;;;;;;14.38;10.00;;;;;;;;;;341298;155;857414;-66
2022/06/13 03:17:50;;;;;;;19.52;9.98;;;;;;;;;;345342;153;860509;-66
2022/06/13 03:18:53;;;;;;;14.37;9.37;;;;;;;;;;341921;154;857407;-67
2022/06/13 03:20:09;;;;;;;15.84;9.22;;;;;;;;;;341435;155;859249;-65
2022/06/13 03:21:14;;;;;;;19.41;10.31;;;;;;;;;;341490;155;857791;-65
2022/06/13 03:22:20;;;;;;;18.52;9.89;;;;;;;;;;342555;155;859134;-67
2022/06/13 03:23:30;;;;;;;16.28;9.93;;;;;;;;;;339410;158;859288;-66
2022/06/13 03:24:37;;;;;;;18.57;9.10;;;;;;;;;;346226;152;857859;-66
2022/06/13 03:25:40;;;;;;;17.45;10.09;;;;;;;;;;347131;152;856569;-67
2022/06/13 03:26:43;;;;;;;19.14;10.24;;;;;;;;;;348837;152;858944;-66
2022/06/13 03:27:46;;;;;;;12.84;9.15;;;;;;;;;;344822;154;865637;-67
2022/06/13 03:28:52;;;;;;;20.34;10.16;;;;;;;;;;346711;153;856564;-66
2022/06/13 03:30:07;;;;;;;19.81;9.73;;;;;;;;;;343851;155;856871;-66
2022/06/13 03:31:10;;;;;;;16.52;10.56;;;;;;;;;;341167;155;857776;-65
2022/06/13 03:32:17;;;;;;;18.27;9.59;;;;;;;;;;340807;156;858606;-66
2022/06/13 03:34:42;;;;;;;17.13;9.66;;;;;;;;;;345390;152;857405;-66
2022/06/13 03:35:44;;;;;;;14.34;9.78;;;;;;;;;;344765;153;857269;-65
2022/06/13 03:36:51;;;;;;;17.41;9.52;;;;;;;;;;339253;154;857259;-64
2022/06/13 03:37:53;;;;;;;17.14;9.77;;;;;;;;;;343993;154;858053;-65
2022/06/13 03:38:59;;;;;;;15.66;9.54;;;;;;;;;;347254;153;857846;-66
2022/06/13 03:40:05;;;;;;;14.22;9.69;;;;;;;;;;338568;156;863771;-64
2022/06/13 03:41:07;;;;;;;16.82;9.97;;;;;;;;;;338989;156;856219;-64
2022/06/13 03:42:13;;;;;;;14.62;9.40;;;;;;;;;;336459;157;859033;-65
2022/06/13 03:43:16;;;;;;;19.15;10.25;;;;;;;;;;337883;157;857367;-65
2022/06/13 03:44:18;;;;;;;16.44;10.11;;;;;;;;;;337458;157;856301;-65
2022/06/13 03:45:22;;;;;;;18.01;9.59;;;;;;;;;;340875;154;856784;-65
2022/06/13 03:46:26;;;;;;;16.41;9.93;;;;;;;;;;341882;154;857337;-64
2022/06/13 03:47:41;;;;;;;13.14;9.38;;;;;;;;;;338357;156;857816;-66
2022/06/13 03:49:03;;;;;;;15.11;9.79;;;;;;;;;;337978;156;857675;-65
2022/06/13 03:50:10;;;;;;;15.98;9.03;;;;;;;;;;340852;155;856242;-66
2022/06/13 03:51:15;;;;;;;16.02;9.26;;;;;;;;;;341371;155;856307;-65
2022/06/13 03:52:17;;;;;;;15.56;9.69;;;;;;;;;;341601;157;856283;-65
2022/06/13 03:53:23;;;;;;;16.39;9.47;;;;;;;;;;344095;153;859521;-66
2022/06/13 03:54:38;;;;;;;15.94;8.54;;;;;;;;;;344635;153;857338;-65
2022/06/13 03:55:41;;;;;;;17.14;9.22;;;;;;;;;;344388;155;857537;-65
2022/06/13 03:56:45;;;;;;;13.74;9.67;;;;;;;;;;346243;153;857236;-65
2022/06/13 03:57:58;;;;;;;15.34;9.43;;;;;;;;;;339757;157;863753;-65
2022/06/13 03:59:03;;;;;;;14.49;8.69;;;;;;;;;;343241;154;858844;-67
2022/06/13 04:00:12;;;;;;;13.02;8.59;;;;;;;;;;345480;153;857353;-66
2022/06/13 04:01:15;;;;;;;14.87;8.49;;;;;;;;;;339031;156;858281;-66
2022/06/13 04:02:19;;;;;;;16.06;8.57;;;;;;;;;;338934;157;857280;-64
2022/06/13 04:03:22;;;;;;;15.11;8.98;;;;;;;;;;343037;154;859313;-66
2022/06/13 04:04:25;;;;;;;11.84;8.61;;;;;;;;;;339236;157;857970;-66
2022/06/13 04:05:44;;;;;;;11.38;8.16;;;;;;;;;;337470;156;862487;-66
2022/06/13 04:06:46;;;;;;;16.10;8.42;;;;;;;;;;345560;154;862110;-64
2022/06/13 04:07:48;;;;;;;15.84;8.88;;;;;;;;;;337956;156;858318;-65
2022/06/13 04:08:49;;;;;;;14.17;9.01;;;;;;;;;;343689;154;864945;-66
2022/06/13 04:09:56;;;;;;;13.58;8.99;;;;;;;;;;338373;156;866713;-65
2022/06/13 04:11:02;;;;;;;11.74;8.78;;;;;;;;;;346822;153;857279;-66
2022/06/13 04:12:06;;;;;;;14.22;8.29;;;;;;;;;;347141;153;857302;-65
2022/06/13 04:13:28;;;;;;;13.34;8.78;;;;;;;;;;344332;153;858222;-66
2022/06/13 04:14:31;;;;;;;12.94;9.01;;;;;;;;;;347087;153;868012;-65
2022/06/13 04:15:38;;;;;;;14.54;9.04;;;;;;;;;;341919;155;857407;-65
2022/06/13 04:16:44;;;;;;;13.67;8.77;;;;;;;;;;338083;155;865150;-65
2022/06/13 04:17:54;;;;;;;16.54;9.01;;;;;;;;;;335252;157;858275;-65
2022/06/13 04:19:14;;;;;;;13.72;8.98;;;;;;;;;;338695;156;857888;-66
2022/06/13 04:20:30;;;;;;;13.67;8.92;;;;;;;;;;344886;154;856880;-67
2022/06/13 04:21:37;;;;;;;12.50;8.97;;;;;;;;;;340332;156;856418;-65
2022/06/13 04:22:41;;;;;;;14.36;9.27;;;;;;;;;;339613;156;856637;-66
2022/06/13 04:23:47;;;;;;;19.26;10.40;;;;;;;;;;341146;156;858763;-67
2022/06/13 04:24:57;;;;;;;13.83;8.76;;;;;;;;;;343362;155;860302;-67
2022/06/13 04:26:12;;;;;;;15.95;9.48;;;;;;;;;;344731;153;856326;-67
2022/06/13 04:27:19;;;;;;;13.93;8.88;;;;;;;;;;342791;153;857365;-65
2022/06/13 04:28:33;;;;;;;14.67;9.27;;;;;;;;;;345355;153;856310;-65
2022/06/13 04:29:36;;;;;;;16.67;10.02;;;;;;;;;;344801;153;856617;-66
2022/06/13 04:30:37;;;;;;;16.54;10.34;;;;;;;;;;344413;153;858598;-65
2022/06/13 04:31:39;;;;;;;13.72;9.63;;;;;;;;;;341575;155;856393;-65
2022/06/13 04:32:48;;;;;;;20.25;9.69;;;;;;;;;;345123;153;859405;-66
2022/06/13 04:33:52;;;;;;;15.93;10.36;;;;;;;;;;345706;153;857286;-65
2022/06/13 04:34:54;;;;;;;20.17;10.68;;;;;;;;;;338512;156;858504;-66
2022/06/13 04:35:56;;;;;;;20.64;9.94;;;;;;;;;;345220;153;856424;-65
2022/06/13 04:36:57;;;;;;;17.19;10.04;;;;;;;;;;338230;156;863575;-65
2022/06/13 04:38:00;;;;;;;15.34;10.11;;;;;;;;;;348615;142;857290;-57
2022/06/13 04:39:03;;;;;;;23.78;10.40;;;;;;;;;;354328;149;857092;-57
2022/06/13 04:40:06;;;;;;;17.36;10.23;;;;;;;;;;357935;146;863585;-57
2022/06/13 04:41:08;;;;;;;15.81;10.36;;;;;;;;;;359390;145;856350;-58
2022/06/13 04:42:11;;;;;;;17.43;9.97;;;;;;;;;;354180;150;856259;-58
2022/06/13 04:43:13;;;;;;;19.65;10.69;;;;;;;;;;352001;150;856979;-57
2022/06/13 04:44:16;;;;;;;18.86;9.83;;;;;;;;;;354377;150;856272;-57
2022/06/13 04:45:20;;;;;;;21.34;9.46;;;;;;;;;;356630;148;857265;-58
2022/06/13 04:46:23;;;;;;;17.56;9.74;;;;;;;;;;364814;145;859062;-57
2022/06/13 04:47:25;;;;;;;19.29;10.00;;;;;;;;;;359961;145;857389;-62
2022/06/13 04:48:27;;;;;;;15.32;9.38;;;;;;;;;;363421;145;857447;-58
2022/06/13 04:49:33;;;;;;;15.89;9.26;;;;;;;;;;356159;148;858469;-58
2022/06/13 04:50:37;;;;;;;16.69;9.60;;;;;;;;;;353267;150;866542;-57
2022/06/13 04:51:40;;;;;;;19.89;10.09;;;;;;;;;;353959;148;859088;-56
2022/06/13 04:52:42;;;;;;;19.83;10.04;;;;;;;;;;360649;145;858148;-56
2022/06/13 04:53:48;;;;;;;13.65;9.41;;;;;;;;;;357445;148;858887;-57
2022/06/13 04:55:00;;;;;;;15.85;9.93;;;;;;;;;;355228;148;857734;-56
2022/06/13 04:56:02;;;;;;;15.90;9.98;;;;;;;;;;355596;148;858566;-60
2022/06/13 04:57:04;;;;;;;14.59;9.24;;;;;;;;;;353676;150;857287;-59
2022/06/13 04:58:08;;;;;;;11.89;8.56;;;;;;;;;;352997;150;864882;-58
2022/06/13 04:59:11;;;;;;;12.99;8.59;;;;;;;;;;352547;148;857408;-57
2022/06/13 05:00:14;;;;;;;15.01;9.09;;;;;;;;;;359832;145;856639;-59
2022/06/13 05:01:18;;;;;;;11.99;8.07;;;;;;;;;;360766;144;864998;-59
2022/06/13 05:02:22;;;;;;;15.97;8.79;;;;;;;;;;353021;150;859471;-61
2022/06/13 05:03:25;;;;;;;16.51;8.79;;;;;;;;;;354674;148;863930;-58
2022/06/13 05:04:29;;;;;;;11.57;8.09;;;;;;;;;;352750;148;857128;-57
2022/06/13 05:05:36;;;;;;;11.53;8.28;;;;;;;;;;357062;147;864105;-58
2022/06/13 05:06:45;;;;;;;14.25;7.94;;;;;;;;;;362978;145;864730;-58
2022/06/13 05:07:47;;;;;;;11.56;7.34;;;;;;;;;;348197;153;857290;-58
2022/06/13 05:08:50;;;;;;;13.62;8.05;;;;;;;;;;349904;152;857260;-59
2022/06/13 05:10:03;;;;;;;11.14;8.06;;;;;;;;;;361308;148;859235;-58
2022/06/13 05:11:16;;;;;;;12.56;7.28;;;;;;;;;;355892;148;857224;-58
2022/06/13 05:12:21;;;;;;;10.34;7.03;;;;;;;;;;357146;146;859059;-58
2022/06/13 05:13:23;;;;;;;9.83;6.42;;;;;;;;;;355827;147;857284;-59
2022/06/13 05:14:26;;;;;;;12.42;6.13;;;;;;;;;;356561;149;857300;-57
2022/06/13 05:15:29;;;;;;;10.68;6.25;;;;;;;;;;360689;147;858860;-56
2022/06/13 05:16:48;;;;;;;9.69;6.26;;;;;;;;;;359683;147;865737;-58
2022/06/13 05:17:51;;;;;;;8.73;6.11;;;;;;;;;;355293;149;857223;-57
2022/06/13 05:18:55;;;;;;;9.49;6.11;;;;;;;;;;356733;146;858756;-56
2022/06/13 05:20:03;;;;;;;11.16;6.69;;;;;;;;;;359111;148;865038;-58
2022/06/13 05:21:24;;;;;;;8.31;5.65;;;;;;;;;;359230;144;859215;-58
2022/06/13 05:22:34;;;;;;;6.99;5.08;;;;;;;;;;352942;150;859240;-58
2022/06/13 05:23:47;;;;;;;9.61;5.36;;;;;;;;;;361363;145;858597;-57
2022/06/13 05:24:50;;;;;;;9.42;5.22;;;;;;;;;;338733;150;860949;-56
2022/06/13 05:25:54;;;;;;;7.02;4.96;;;;;;;;;;353718;150;857297;-58
2022/06/13 05:26:56;;;;;;;9.22;5.47;;;;;;;;;;351505;149;857884;-57
2022/06/13 05:27:57;;;;;;;7.19;5.31;;;;;;;;;;361502;148;865718;-58
2022/06/13 05:29:00;;;;;;;8.86;5.56;;;;;;;;;;359784;148;857306;-58
2022/06/13 05:30:02;;;;;;;7.00;5.34;;;;;;;;;;358450;145;859105;-57
2022/06/13 05:31:08;;;;;;;8.74;5.04;;;;;;;;;;361733;147;864972;-58
2022/06/13 05:32:11;;;;;;;7.36;5.13;;;;;;;;;;354186;148;857333;-58
2022/06/13 05:33:13;;;;;;;7.97;4.86;;;;;;;;;;364130;145;857802;-58
2022/06/13 05:34:16;;;;;;;7.31;4.38;;;;;;;;;;360233;148;857305;-60
2022/06/13 05:35:21;;;;;;;7.56;4.44;;;;;;;;;;356381;147;860189;-58
2022/06/13 05:36:24;;;;;;;7.16;4.62;;;;;;;;;;357576;148;857187;-57
2022/06/13 05:37:25;;;;;;;6.59;4.87;;;;;;;;;;352723;149;857465;-56
2022/06/13 05:38:29;;;;;;;6.40;4.43;;;;;;;;;;359319;147;857830;-57
2022/06/13 05:39:31;;;;;;;6.72;4.67;;;;;;;;;;358724;146;865860;-57
2022/06/13 05:40:32;;;;;;;8.25;4.89;;;;;;;;;;363544;143;858180;-57
2022/06/13 05:41:34;;;;;;;8.71;4.58;;;;;;;;;;359496;146;857573;-57
2022/06/13 05:42:36;;;;;;;6.45;4.56;;;;;;;;;;363300;146;856589;-58
2022/06/13 05:43:38;;;;;;;9.63;5.42;;;;;;;;;;365420;143;863909;-57
2022/06/13 05:44:40;;;;;;;7.52;4.38;;;;;;;;;;366248;143;857097;-56
2022/06/13 05:45:43;;;;;;;7.84;4.41;;;;;;;;;;366897;143;858441;-56
2022/06/13 05:46:45;;;;;;;6.69;4.12;;;;;;;;;;366051;144;865152;-57
2022/06/13 05:47:47;;;;;;;6.14;4.33;;;;;;;;;;360113;146;857774;-56
2022/06/13 05:48:49;;;;;;;5.31;4.50;;;;;;;;;;361163;147;857331;-55
2022/06/13 05:49:51;;;;;;;5.37;4.05;;;;;;;;;;359561;149;857936;-57
2022/06/13 05:50:54;;;;;;;5.62;4.19;;;;;;;;;;361047;146;858394;-57
2022/06/13 05:51:56;;;;;;;5.91;3.84;;;;;;;;;;360182;147;859828;-57
2022/06/13 05:52:58;;;;;;;7.89;4.64;;;;;;;;;;355801;147;858386;-58
2022/06/13 05:54:00;;;;;;;6.89;4.03;;;;;;;;;;359847;147;865799;-57
2022/06/13 05:55:03;;;;;;;6.36;3.85;;;;;;;;;;359641;146;857339;-57
2022/06/13 05:56:04;;;;;;;6.56;3.93;;;;;;;;;;356191;147;859154;-57
2022/06/13 05:57:06;;;;;;;6.44;3.89;;;;;;;;;;363313;143;857300;-57
2022/06/13 05:58:11;;;;;;;4.17;3.49;;;;;;;;;;362198;146;863871;-57
2022/06/13 05:59:13;;;;;;;4.87;4.07;;;;;;;;;;362919;143;858203;-55
2022/06/13 06:00:18;;;;;;;6.81;3.70;;;;;;;;;;365787;145;857397;-57
2022/06/13 06:01:20;;;;;;;5.72;3.64;;;;;;;;;;356953;146;857352;-57
2022/06/13 06:02:21;;;;;;;4.25;3.73;;;;;;;;;;360597;148;857314;-57
2022/06/13 06:03:24;;;;;;;7.11;4.07;;;;;;;;;;357374;146;858894;-57
2022/06/13 06:04:25;;;;;;;5.67;3.59;;;;;;;;;;359915;146;866603;-57
2022/06/13 06:05:27;;;;;;;6.39;3.62;;;;;;;;;;366622;144;858326;-58
2022/06/13 06:06:29;;;;;;;6.61;3.45;;;;;;;;;;362335;146;858239;-57
2022/06/13 06:07:31;;;;;;;3.79;3.23;;;;;;;;;;360159;146;864735;-56
2022/06/13 06:08:34;;;;;;;8.17;3.64;;;;;;;;;;358908;149;858051;-57
2022/06/13 06:09:36;;;;;;;5.23;3.57;;;;;;;;;;359067;147;857876;-57
2022/06/13 06:10:37;;;;;;;5.74;3.59;;;;;;;;;;357890;146;864907;-55
2022/06/13 06:11:39;;;;;;;3.66;3.09;;;;;;;;;;358617;145;864348;-58
2022/06/13 06:12:41;;;;;;;6.59;3.09;;;;;;;;;;367038;145;864859;-57
2022/06/13 06:13:43;;;;;;;3.98;3.21;;;;;;;;;;366901;143;866388;-56
2022/06/13 06:14:44;;;;;;;5.11;3.45;;;;;;;;;;366739;143;859056;-57
2022/06/13 06:15:46;;;;;;;5.99;3.36;;;;;;;;;;367229;145;857377;-56
2022/06/13 06:16:48;;;;;;;3.57;3.26;;;;;;;;;;359506;146;857258;-56
2022/06/13 06:17:50;;;;;;;7.49;3.56;;;;;;;;;;362738;146;857848;-58
2022/06/13 06:18:51;;;;;;;5.44;3.27;;;;;;;;;;366485;143;865556;-58
2022/06/13 06:19:53;;;;;;;4.21;3.37;;;;;;;;;;364680;143;857363;-57
2022/06/13 06:20:55;;;;;;;3.87;3.41;;;;;;;;;;363615;143;865748;-60
2022/06/13 06:21:57;;;;;;;4.76;3.25;;;;;;;;;;369127;143;856392;-58
2022/06/13 06:22:59;;;;;;;4.05;3.59;;;;;;;;;;366663;143;857304;-56
2022/06/13 06:24:01;;;;;;;6.16;3.16;;;;;;;;;;367026;143;856302;-58
2022/06/13 06:25:03;;;;;;;6.26;3.45;;;;;;;;;;361931;143;866157;-57